Time,TemperatureF,DewpointF,PressureIn,WindDirection,WindDirectionDegrees,WindSpeedMPH,WindSpeedGustMPH,Humidity,HourlyPrecipIn,Conditions,Clouds,dailyrainin,SoftwareType,DateUTC
2013-04-28 00:05:00,49.8,49.3,29.98,WSW,240,0.0,6.0,98,0.00,,,0.00,Wunderground v.1.15,2013-04-28 05:05:00,
2013-04-28 00:14:00,49.8,49.3,29.98,SSW,195,0.0,6.0,98,0.00,,,0.00,Wunderground v.1.15,2013-04-28 05:14:00,
2013-04-28 00:19:00,49.8,49.3,29.98,SSE,166,0.0,6.0,98,0.00,,,0.00,Wunderground v.1.15,2013-04-28 05:19:00,
2013-04-28 00:29:00,49.8,49.3,29.98,SSE,167,0.0,6.0,98,0.00,,,0.00,Wunderground v.1.15,2013-04-28 05:29:00,
2013-04-28 00:35:00,49.8,49.3,29.98,SSE,166,0.0,6.0,98,0.00,,,0.00,Wunderground v.1.15,2013-04-28 05:35:00,
2013-04-28 00:45:00,49.8,49.3,29.98,SSE,166,0.0,6.0,98,0.00,,,0.00,Wunderground v.1.15,2013-04-28 05:45:00,
2013-04-28 00:54:00,49.8,49.3,29.98,SE,139,0.0,6.0,98,0.00,,,0.00,Wunderground v.1.15,2013-04-28 05:54:00,
2013-04-28 01:04:00,49.8,49.3,29.98,SE,139,0.0,6.0,98,0.00,,,0.00,Wunderground v.1.15,2013-04-28 06:04:00,
2013-04-28 01:15:00,49.8,49.3,29.98,SE,139,0.0,6.0,98,0.00,,,0.00,Wunderground v.1.15,2013-04-28 06:15:00,
2013-04-28 01:24:00,49.8,49.3,29.98,SSE,155,0.0,6.0,98,0.00,,,0.00,Wunderground v.1.15,2013-04-28 06:24:00,
2013-04-28 01:34:00,49.8,49.3,29.97,SW,228,0.0,6.0,98,0.00,,,0.00,Wunderground v.1.15,2013-04-28 06:34:00,
2013-04-28 01:44:00,49.7,49.2,29.97,South,177,0.0,6.0,98,0.00,,,0.00,Wunderground v.1.15,2013-04-28 06:44:00,
2013-04-28 01:55:00,49.7,49.2,29.98,South,172,0.0,6.0,98,0.00,,,0.00,Wunderground v.1.15,2013-04-28 06:55:00,
2013-04-28 02:04:00,49.7,49.2,29.97,South,172,0.0,6.0,98,0.00,,,0.00,Wunderground v.1.15,2013-04-28 07:04:00,
2013-04-28 02:14:00,49.7,49.2,29.97,SSE,148,0.0,6.0,98,0.00,,,0.00,Wunderground v.1.15,2013-04-28 07:14:00,
2013-04-28 02:24:00,49.6,49.1,29.97,SW,232,0.0,6.0,98,0.00,,,0.00,Wunderground v.1.15,2013-04-28 07:24:00,
2013-04-28 02:30:00,49.5,49.0,29.97,West,264,0.0,6.0,98,0.00,,,0.00,Wunderground v.1.15,2013-04-28 07:30:00,
2013-04-28 02:40:00,49.5,49.0,29.96,ENE,69,0.0,6.0,98,0.00,,,0.00,Wunderground v.1.15,2013-04-28 07:40:00,
2013-04-28 02:49:00,49.5,49.0,29.96,West,266,0.0,6.0,98,0.00,,,0.00,Wunderground v.1.15,2013-04-28 07:49:00,
2013-04-28 02:59:00,49.4,48.9,29.96,SW,219,1.0,1.0,98,0.00,,,0.00,Wunderground v.1.15,2013-04-28 07:59:00,
2013-04-28 03:05:00,49.4,48.9,29.96,SW,222,0.0,6.0,98,0.00,,,0.00,Wunderground v.1.15,2013-04-28 08:05:00,
2013-04-28 03:15:00,49.3,48.8,29.95,SSE,167,0.0,6.0,98,0.00,,,0.00,Wunderground v.1.15,2013-04-28 08:15:00,
2013-04-28 03:24:00,49.3,48.8,29.95,SW,219,0.0,6.0,98,0.00,,,0.00,Wunderground v.1.15,2013-04-28 08:24:00,
2013-04-28 03:34:00,49.3,48.8,29.95,North,353,0.0,6.0,98,0.00,,,0.00,Wunderground v.1.15,2013-04-28 08:34:00,
2013-04-28 03:45:00,49.3,48.8,29.96,SSE,162,0.0,6.0,98,0.00,,,0.00,Wunderground v.1.15,2013-04-28 08:45:00,
2013-04-28 03:55:00,49.3,48.8,29.96,ESE,123,0.0,6.0,98,0.00,,,0.00,Wunderground v.1.15,2013-04-28 08:55:00,
2013-04-28 04:04:00,49.4,48.9,29.96,SE,131,0.0,6.0,98,0.00,,,0.00,Wunderground v.1.15,2013-04-28 09:04:00,
2013-04-28 04:14:00,49.3,48.8,29.95,SSW,210,0.0,6.0,98,0.00,,,0.00,Wunderground v.1.15,2013-04-28 09:14:00,
2013-04-28 04:25:00,49.3,48.8,29.95,SE,142,0.0,6.0,98,0.00,,,0.00,Wunderground v.1.15,2013-04-28 09:25:00,
2013-04-28 04:34:00,49.2,48.7,29.95,SE,134,0.0,6.0,98,0.00,,,0.00,Wunderground v.1.15,2013-04-28 09:34:00,
2013-04-28 04:44:00,49.2,48.7,29.95,East,91,0.0,6.0,98,0.00,,,0.00,Wunderground v.1.15,2013-04-28 09:44:00,
2013-04-28 04:54:00,49.1,48.6,29.95,SE,127,0.0,6.0,98,0.00,,,0.00,Wunderground v.1.15,2013-04-28 09:54:00,
2013-04-28 05:00:00,49.2,48.7,29.95,SE,127,0.0,6.0,98,0.00,,,0.00,Wunderground v.1.15,2013-04-28 10:00:00,
2013-04-28 05:10:00,49.2,48.7,29.96,ESE,120,0.0,6.0,98,0.00,,,0.00,Wunderground v.1.15,2013-04-28 10:10:00,
2013-04-28 05:19:00,49.2,48.7,29.96,SW,234,0.0,6.0,98,0.00,,,0.00,Wunderground v.1.15,2013-04-28 10:19:00,
2013-04-28 05:29:00,49.2,48.7,29.96,SE,139,0.0,6.0,98,0.00,,,0.00,Wunderground v.1.15,2013-04-28 10:29:00,
2013-04-28 05:35:00,49.2,48.7,29.96,ESE,122,0.0,6.0,98,0.00,,,0.00,Wunderground v.1.15,2013-04-28 10:35:00,
2013-04-28 05:45:00,49.2,48.7,29.97,ESE,121,0.0,6.0,98,0.00,,,0.00,Wunderground v.1.15,2013-04-28 10:45:00,
2013-04-28 05:54:00,49.1,48.6,29.96,East,98,0.0,6.0,98,0.00,,,0.00,Wunderground v.1.15,2013-04-28 10:54:00,
2013-04-28 06:04:00,49.1,48.6,29.96,East,98,0.0,6.0,98,0.00,,,0.00,Wunderground v.1.15,2013-04-28 11:04:00,
2013-04-28 06:15:00,49.1,48.6,29.96,East,98,0.0,6.0,98,0.00,,,0.00,Wunderground v.1.15,2013-04-28 11:15:00,
2013-04-28 06:25:00,49.0,48.5,29.95,East,97,0.0,6.0,98,0.00,,,0.00,Wunderground v.1.15,2013-04-28 11:25:00,
2013-04-28 06:34:00,49.1,48.6,29.96,ESE,117,0.0,6.0,98,0.00,,,0.00,Wunderground v.1.15,2013-04-28 11:34:00,
2013-04-28 06:44:00,49.1,48.6,29.96,SW,226,0.0,6.0,98,0.00,,,0.00,Wunderground v.1.15,2013-04-28 11:44:00,
2013-04-28 06:55:00,49.1,48.8,29.97,SW,226,0.0,6.0,99,0.00,,,0.00,Wunderground v.1.15,2013-04-28 11:55:00,
2013-04-28 07:04:00,49.2,48.9,29.97,SE,127,0.0,6.0,99,0.00,,,0.00,Wunderground v.1.15,2013-04-28 12:04:00,
2013-04-28 07:14:00,49.3,49.0,29.98,SE,127,0.0,6.0,99,0.00,,,0.00,Wunderground v.1.15,2013-04-28 12:14:00,
2013-04-28 07:24:00,49.5,49.2,29.98,ESE,103,0.0,6.0,99,0.00,,,0.00,Wunderground v.1.15,2013-04-28 12:24:00,
2013-04-28 07:35:00,49.6,49.3,29.98,SE,138,0.0,6.0,99,0.00,,,0.00,Wunderground v.1.15,2013-04-28 12:35:00,
2013-04-28 07:44:00,49.7,49.2,29.99,ESE,117,0.0,6.0,98,0.00,,,0.00,Wunderground v.1.15,2013-04-28 12:44:00,
2013-04-28 07:54:00,49.8,49.3,29.99,East,92,0.0,6.0,98,0.00,,,0.00,Wunderground v.1.15,2013-04-28 12:54:00,
2013-04-28 08:05:00,50.0,49.5,29.99,East,91,0.0,6.0,98,0.00,,,0.00,Wunderground v.1.15,2013-04-28 13:05:00,
2013-04-28 08:15:00,50.1,49.6,29.99,SW,235,0.0,6.0,98,0.00,,,0.00,Wunderground v.1.15,2013-04-28 13:15:00,
2013-04-28 08:24:00,50.1,49.6,29.99,SW,236,0.0,6.0,98,0.00,,,0.00,Wunderground v.1.15,2013-04-28 13:24:00,
2013-04-28 08:34:00,50.3,49.8,30.00,SW,221,0.0,6.0,98,0.00,,,0.00,Wunderground v.1.15,2013-04-28 13:34:00,
2013-04-28 08:44:00,50.4,49.6,30.00,SE,127,0.0,6.0,97,0.00,,,0.00,Wunderground v.1.15,2013-04-28 13:44:00,
2013-04-28 08:50:00,50.5,49.7,30.00,ESE,114,0.0,6.0,97,0.00,,,0.00,Wunderground v.1.15,2013-04-28 13:50:00,
2013-04-28 09:00:00,50.6,49.8,30.01,SSW,203,0.0,6.0,97,0.00,,,0.00,Wunderground v.1.15,2013-04-28 14:00:00,
2013-04-28 09:09:00,50.7,49.9,30.01,SE,133,0.0,6.0,97,0.00,,,0.00,Wunderground v.1.15,2013-04-28 14:09:00,
2013-04-28 09:19:00,50.9,50.1,30.01,South,172,0.0,6.0,97,0.00,,,0.00,Wunderground v.1.15,2013-04-28 14:19:00,
2013-04-28 09:30:00,51.1,50.3,30.01,ESE,110,0.0,6.0,97,0.00,,,0.00,Wunderground v.1.15,2013-04-28 14:30:00,
2013-04-28 09:39:00,51.1,50.0,30.01,ESE,103,1.0,1.0,96,0.00,,,0.00,Wunderground v.1.15,2013-04-28 14:39:00,
2013-04-28 09:49:00,51.3,50.2,30.01,ESE,108,1.0,1.0,96,0.00,,,0.00,Wunderground v.1.15,2013-04-28 14:49:00,
2013-04-28 09:59:00,51.7,50.6,30.01,South,179,0.0,6.0,96,0.00,,,0.00,Wunderground v.1.15,2013-04-28 14:59:00,
2013-04-28 10:05:00,51.8,50.4,30.01,SE,131,0.0,6.0,95,0.00,,,0.00,Wunderground v.1.15,2013-04-28 15:05:00,
2013-04-28 10:14:00,52.3,50.6,30.01,SW,221,1.0,6.0,94,0.00,,,0.00,Wunderground v.1.15,2013-04-28 15:14:00,
2013-04-28 10:24:00,52.6,50.6,30.01,East,93,1.0,6.0,93,0.00,,,0.00,Wunderground v.1.15,2013-04-28 15:24:00,
2013-04-28 10:34:00,53.2,51.2,30.00,West,259,1.0,6.0,93,0.00,,,0.00,Wunderground v.1.15,2013-04-28 15:34:00,
2013-04-28 10:40:00,53.7,51.4,30.00,ESE,120,1.0,6.0,92,0.00,,,0.00,Wunderground v.1.15,2013-04-28 15:40:00,
2013-04-28 10:50:00,53.9,51.0,30.01,ESE,110,2.0,6.0,90,0.00,,,0.00,Wunderground v.1.15,2013-04-28 15:50:00,
2013-04-28 10:59:00,54.4,51.2,30.00,SSW,205,1.0,1.0,89,0.00,,,0.00,Wunderground v.1.15,2013-04-28 15:59:00,
2013-04-28 11:09:00,54.7,51.2,30.00,SE,124,1.0,1.0,88,0.00,,,0.00,Wunderground v.1.15,2013-04-28 16:09:00,
2013-04-28 11:20:00,54.3,50.8,30.00,ESE,108,1.0,6.0,88,0.00,,,0.00,Wunderground v.1.15,2013-04-28 16:20:00,
2013-04-28 11:30:00,54.5,51.0,30.00,SSE,159,2.0,6.0,88,0.00,,,0.00,Wunderground v.1.15,2013-04-28 16:30:00,
2013-04-28 11:39:00,54.7,50.6,30.00,East,93,2.0,6.0,86,0.00,,,0.00,Wunderground v.1.15,2013-04-28 16:39:00,
2013-04-28 11:49:00,55.1,50.7,29.99,ESE,112,2.0,6.0,85,0.00,,,0.00,Wunderground v.1.15,2013-04-28 16:49:00,
2013-04-28 12:00:00,55.8,51.0,29.99,ESE,116,1.0,6.0,84,0.00,,,0.00,Wunderground v.1.15,2013-04-28 17:00:00,
2013-04-28 12:09:00,56.4,51.3,29.99,South,190,1.0,6.0,83,0.00,,,0.00,Wunderground v.1.15,2013-04-28 17:09:00,
2013-04-28 12:19:00,57.4,51.9,29.99,SSW,211,1.0,1.0,82,0.00,,,0.00,Wunderground v.1.15,2013-04-28 17:19:00,
2013-04-28 12:29:00,57.8,51.7,29.98,WSW,244,1.0,6.0,80,0.00,,,0.00,Wunderground v.1.15,2013-04-28 17:29:00,
2013-04-28 12:40:00,57.2,50.7,29.99,SE,127,2.0,6.0,79,0.00,,,0.00,Wunderground v.1.15,2013-04-28 17:40:00,
2013-04-28 12:49:00,57.6,50.4,29.98,ESE,105,1.0,6.0,77,0.00,,,0.00,Wunderground v.1.15,2013-04-28 17:49:00,
2013-04-28 12:59:00,58.3,51.8,29.97,South,180,2.0,2.0,79,0.00,,,0.00,Wunderground v.1.15,2013-04-28 17:59:00,
2013-04-28 13:10:00,59.5,51.9,29.97,WSW,253,1.0,6.0,76,0.00,,,0.00,Wunderground v.1.15,2013-04-28 18:10:00,
2013-04-28 13:20:00,60.8,52.5,29.96,SSE,147,2.0,6.0,74,0.00,,,0.00,Wunderground v.1.15,2013-04-28 18:20:00,
2013-04-28 13:29:00,60.9,53.3,29.96,WNW,291,2.0,6.0,76,0.00,,,0.00,Wunderground v.1.15,2013-04-28 18:29:00,
2013-04-28 13:39:00,60.9,52.6,29.96,SW,224,2.0,6.0,74,0.00,,,0.00,Wunderground v.1.15,2013-04-28 18:39:00,
2013-04-28 13:50:00,62.1,53.7,29.96,SE,129,2.0,2.0,74,0.00,,,0.00,Wunderground v.1.15,2013-04-28 18:50:00,
2013-04-28 13:55:00,62.9,53.4,29.95,WSW,240,1.0,6.0,71,0.00,,,0.00,Wunderground v.1.15,2013-04-28 18:55:00,
2013-04-28 14:05:00,63.8,53.4,29.95,WSW,250,1.0,6.0,69,0.00,,,0.00,Wunderground v.1.15,2013-04-28 19:05:00,
2013-04-28 14:14:00,64.0,54.0,29.94,South,169,2.0,6.0,70,0.00,,,0.00,Wunderground v.1.15,2013-04-28 19:14:00,
2013-04-28 14:24:00,63.9,54.3,29.94,NNW,336,2.0,6.0,71,0.00,,,0.00,Wunderground v.1.15,2013-04-28 19:24:00,
2013-04-28 14:30:00,64.5,54.5,29.94,WSW,250,1.0,6.0,70,0.00,,,0.00,Wunderground v.1.15,2013-04-28 19:30:00,
2013-04-28 14:39:00,64.9,54.9,29.93,SSW,207,2.0,2.0,70,0.00,,,0.00,Wunderground v.1.15,2013-04-28 19:39:00,
2013-04-28 14:49:00,65.7,53.6,29.93,SSE,165,1.0,1.0,65,0.00,,,0.00,Wunderground v.1.15,2013-04-28 19:49:00,
2013-04-28 14:59:00,66.6,55.3,29.93,West,263,1.0,1.0,67,0.00,,,0.00,Wunderground v.1.15,2013-04-28 19:59:00,
2013-04-28 15:10:00,67.1,54.1,29.92,NNW,343,1.0,1.0,63,0.00,,,0.00,Wunderground v.1.15,2013-04-28 20:10:00,
2013-04-28 15:19:00,67.1,54.1,29.91,SE,134,1.0,6.0,63,0.00,,,0.00,Wunderground v.1.15,2013-04-28 20:19:00,
2013-04-28 15:29:00,67.3,54.3,29.91,East,96,2.0,2.0,63,0.00,,,0.00,Wunderground v.1.15,2013-04-28 20:29:00,
2013-04-28 15:40:00,67.5,54.5,29.90,NW,311,2.0,2.0,63,0.00,,,0.00,Wunderground v.1.15,2013-04-28 20:40:00,
2013-04-28 15:50:00,67.8,54.3,29.90,SSW,204,1.0,1.0,62,0.00,,,0.00,Wunderground v.1.15,2013-04-28 20:50:00,
2013-04-28 15:59:00,68.5,54.1,29.90,ESE,120,2.0,6.0,60,0.00,,,0.00,Wunderground v.1.15,2013-04-28 20:59:00,
2013-04-28 16:09:00,68.9,54.0,29.90,ESE,117,1.0,1.0,59,0.00,,,0.00,Wunderground v.1.15,2013-04-28 21:09:00,
2013-04-28 16:20:00,69.3,53.4,29.89,South,181,1.0,6.0,57,0.00,,,0.00,Wunderground v.1.15,2013-04-28 21:20:00,
2013-04-28 16:30:00,69.5,53.6,29.89,WNW,288,1.0,6.0,57,0.00,,,0.00,Wunderground v.1.15,2013-04-28 21:30:00,
2013-04-28 16:39:00,69.9,53.5,29.88,ESE,118,0.0,6.0,56,0.00,,,0.00,Wunderground v.1.15,2013-04-28 21:39:00,
2013-04-28 16:49:00,70.5,53.1,29.88,WSW,249,1.0,6.0,54,0.00,,,0.00,Wunderground v.1.15,2013-04-28 21:49:00,
2013-04-28 17:00:00,70.5,53.1,29.87,SSW,198,1.0,6.0,54,0.00,,,0.00,Wunderground v.1.15,2013-04-28 22:00:00,
2013-04-28 17:09:00,71.2,53.2,29.87,SE,124,1.0,6.0,53,0.00,,,0.00,Wunderground v.1.15,2013-04-28 22:09:00,
2013-04-28 17:14:00,70.8,52.3,29.87,NNE,27,1.0,6.0,52,0.00,,,0.00,Wunderground v.1.15,2013-04-28 22:14:00,
2013-04-28 17:24:00,70.1,52.2,29.87,SSE,153,1.0,6.0,53,0.00,,,0.00,Wunderground v.1.15,2013-04-28 22:24:00,
2013-04-28 17:34:00,70.3,52.9,29.87,NNE,27,0.0,6.0,54,0.00,,,0.00,Wunderground v.1.15,2013-04-28 22:34:00,
2013-04-28 17:45:00,70.9,52.9,29.86,ENE,71,0.0,6.0,53,0.00,,,0.00,Wunderground v.1.15,2013-04-28 22:45:00,
2013-04-28 17:54:00,70.5,53.6,29.86,SE,131,1.0,6.0,55,0.00,,,0.00,Wunderground v.1.15,2013-04-28 22:54:00,
2013-04-28 18:04:00,70.3,51.3,29.86,SSE,153,1.0,6.0,51,0.00,,,0.00,Wunderground v.1.15,2013-04-28 23:04:00,
2013-04-28 18:15:00,70.4,52.4,29.86,ENE,59,1.0,6.0,53,0.00,,,0.00,Wunderground v.1.15,2013-04-28 23:15:00,
2013-04-28 18:20:00,70.2,50.7,29.85,ESE,114,2.0,6.0,50,0.00,,,0.00,Wunderground v.1.15,2013-04-28 23:20:00,
2013-04-28 18:30:00,69.7,50.2,29.85,SE,127,1.0,6.0,50,0.00,,,0.00,Wunderground v.1.15,2013-04-28 23:30:00,
2013-04-28 18:39:00,69.4,51.0,29.84,North,356,1.0,1.0,52,0.00,,,0.00,Wunderground v.1.15,2013-04-28 23:39:00,
2013-04-28 18:49:00,69.0,52.2,29.84,ESE,122,1.0,6.0,55,0.00,,,0.00,Wunderground v.1.15,2013-04-28 23:49:00,
2013-04-28 18:55:00,68.7,51.9,29.84,East,95,1.0,6.0,55,0.00,,,0.00,Wunderground v.1.15,2013-04-28 23:55:00,
2013-04-28 19:05:00,68.3,51.5,29.84,ENE,74,2.0,6.0,55,0.00,,,0.00,Wunderground v.1.15,2013-04-29 00:05:00,
2013-04-28 19:14:00,67.8,51.5,29.84,ENE,59,0.0,6.0,56,0.00,,,0.00,Wunderground v.1.15,2013-04-29 00:14:00,
2013-04-28 19:24:00,67.3,51.5,29.84,NNE,27,0.0,6.0,57,0.00,,,0.00,Wunderground v.1.15,2013-04-29 00:24:00,
2013-04-28 19:35:00,66.8,51.5,29.84,NNE,14,1.0,6.0,58,0.00,,,0.00,Wunderground v.1.15,2013-04-29 00:35:00,
2013-04-28 19:44:00,66.0,51.7,29.84,NNE,25,1.0,6.0,60,0.00,,,0.00,Wunderground v.1.15,2013-04-29 00:44:00,
2013-04-28 19:54:00,65.3,51.9,29.84,NE,35,1.0,6.0,62,0.00,,,0.00,Wunderground v.1.15,2013-04-29 00:54:00,
2013-04-28 20:04:00,64.4,52.0,29.84,NE,38,0.0,6.0,64,0.00,,,0.00,Wunderground v.1.15,2013-04-29 01:04:00,
2013-04-28 20:15:00,63.4,52.2,29.84,NE,40,0.0,6.0,67,0.00,,,0.00,Wunderground v.1.15,2013-04-29 01:15:00,
2013-04-28 20:24:00,62.6,52.3,29.85,NE,43,0.0,6.0,69,0.00,,,0.00,Wunderground v.1.15,2013-04-29 01:24:00,
2013-04-28 20:34:00,62.1,52.2,29.85,NE,46,0.0,6.0,70,0.00,,,0.00,Wunderground v.1.15,2013-04-29 01:34:00,
2013-04-28 20:44:00,61.3,52.2,29.85,NE,40,0.0,6.0,72,0.00,,,0.00,Wunderground v.1.15,2013-04-29 01:44:00,
2013-04-28 20:50:00,60.7,52.0,29.85,NE,40,0.0,6.0,73,0.00,,,0.00,Wunderground v.1.15,2013-04-29 01:50:00,
2013-04-28 21:00:00,59.5,51.6,29.86,NE,40,0.0,6.0,75,0.00,,,0.00,Wunderground v.1.15,2013-04-29 02:00:00,
2013-04-28 21:09:00,59.3,51.7,29.86,NE,51,0.0,6.0,76,0.00,,,0.00,Wunderground v.1.15,2013-04-29 02:09:00,
2013-04-28 21:19:00,59.8,52.2,29.86,NE,44,0.0,6.0,76,0.00,,,0.00,Wunderground v.1.15,2013-04-29 02:19:00,
2013-04-28 21:30:00,59.9,52.3,29.86,NE,34,0.0,6.0,76,0.00,,,0.00,Wunderground v.1.15,2013-04-29 02:30:00,
2013-04-28 21:40:00,59.7,52.1,29.86,NNE,19,0.0,6.0,76,0.00,,,0.00,Wunderground v.1.15,2013-04-29 02:40:00,
2013-04-28 21:49:00,59.6,52.0,29.86,North,10,0.0,6.0,76,0.00,,,0.00,Wunderground v.1.15,2013-04-29 02:49:00,
2013-04-28 21:59:00,59.6,52.0,29.86,North,1,0.0,6.0,76,0.00,,,0.00,Wunderground v.1.15,2013-04-29 02:59:00,
2013-04-28 22:10:00,59.5,52.3,29.87,NE,43,1.0,1.0,77,0.00,,,0.00,Wunderground v.1.15,2013-04-29 03:10:00,
2013-04-28 22:19:00,59.0,51.8,29.86,NNE,24,1.0,1.0,77,0.00,,,0.00,Wunderground v.1.15,2013-04-29 03:19:00,
2013-04-28 22:29:00,59.0,52.1,29.87,NE,46,1.0,1.0,78,0.00,,,0.00,Wunderground v.1.15,2013-04-29 03:29:00,
2013-04-28 22:39:00,58.7,51.9,29.86,NNE,31,1.0,1.0,78,0.00,,,0.00,Wunderground v.1.15,2013-04-29 03:39:00,
2013-04-28 22:50:00,58.5,51.7,29.86,NNE,22,1.0,6.0,78,0.00,,,0.00,Wunderground v.1.15,2013-04-29 03:50:00,
2013-04-28 22:59:00,58.1,51.6,29.86,NE,38,1.0,1.0,79,0.00,,,0.00,Wunderground v.1.15,2013-04-29 03:59:00,
2013-04-28 23:04:00,58.0,51.5,29.86,NNE,30,1.0,6.0,79,0.00,,,0.00,Wunderground v.1.15,2013-04-29 04:04:00,
2013-04-28 23:14:00,57.6,51.5,29.86,ENE,61,0.0,6.0,80,0.00,,,0.00,Wunderground v.1.15,2013-04-29 04:14:00,
2013-04-28 23:20:00,57.2,51.1,29.86,NE,52,0.0,6.0,80,0.00,,,0.00,Wunderground v.1.15,2013-04-29 04:20:00,
2013-04-28 23:25:00,56.9,50.8,29.86,WNW,288,0.0,6.0,80,0.00,,,0.00,Wunderground v.1.15,2013-04-29 04:25:00,
2013-04-28 23:30:00,56.5,50.7,29.86,WNW,289,0.0,6.0,81,0.00,,,0.00,Wunderground v.1.15,2013-04-29 04:30:00,
2013-04-28 23:39:00,56.2,50.8,29.86,WSW,248,0.0,6.0,82,0.00,,,0.00,Wunderground v.1.15,2013-04-29 04:39:00,
2013-04-28 23:44:00,55.9,50.5,29.86,SSW,213,0.0,6.0,82,0.00,,,0.00,Wunderground v.1.15,2013-04-29 04:44:00,
2013-04-28 23:54:00,55.4,50.6,29.86,West,277,0.0,6.0,84,0.00,,,0.00,Wunderground v.1.15,2013-04-29 04:54:00,